createdAt,value
2018-01-16T00:00:26.880Z,92.04
2018-01-16T00:01:25.297Z,91.94
2018-01-16T00:02:25.295Z,91.47
2018-01-16T00:03:25.332Z,91.94
2018-01-16T00:04:25.634Z,90.61
2018-01-16T00:05:25.449Z,90.52
2018-01-16T00:06:25.368Z,91.19
2018-01-16T00:07:26.218Z,91.28
2018-01-16T00:08:25.268Z,90.99
2018-01-16T00:09:25.250Z,91.47
2018-01-16T00:10:25.383Z,90.90
2018-01-16T00:11:28.383Z,90.90
2018-01-16T00:12:25.151Z,90.90
2018-01-16T00:13:25.173Z,90.52
2018-01-16T00:14:25.210Z,90.99
2018-01-16T00:15:25.905Z,90.99
2018-01-16T00:16:33.498Z,90.90
2018-01-16T00:35:59.954Z,90.23
2018-01-16T00:37:00.467Z,89.86
2018-01-16T00:48:38.095Z,89.67
2018-01-16T01:02:39.980Z,89.57
2018-01-16T04:57:02.258Z,87.15
2018-01-16T04:59:48.566Z,88.01
2018-01-16T05:00:53.418Z,87.24
2018-01-16T05:01:46.011Z,87.34
2018-01-16T05:02:45.932Z,87.19
2018-01-16T05:33:23.018Z,87.19
2018-01-16T05:35:42.957Z,87.01
2018-01-16T05:36:39.779Z,87.19
2018-01-16T05:37:28.314Z,86.72
2018-01-16T05:38:32.791Z,86.91
2018-01-16T05:39:28.394Z,86.72
2018-01-16T05:40:28.844Z,86.72
2018-01-16T05:41:29.806Z,86.43
2018-01-16T05:43:03.021Z,86.43
2018-01-16T05:43:28.438Z,86.43
2018-01-16T05:44:29.280Z,86.72
2018-01-16T05:45:32.311Z,86.43
2018-01-16T05:46:29.271Z,86.63
2018-01-16T05:47:28.150Z,86.53
2018-01-16T06:01:52.892Z,86.24
2018-01-16T06:03:15.353Z,86.24
2018-01-16T06:04:12.322Z,85.86
2018-01-16T06:05:12.236Z,86.24
2018-01-16T06:06:13.345Z,86.53
2018-01-16T06:07:12.210Z,86.05
2018-01-16T06:08:12.403Z,86.24
2018-01-16T06:09:18.683Z,85.77
2018-01-16T06:10:12.853Z,85.96
2018-01-16T06:11:12.369Z,85.86
2018-01-16T06:12:15.131Z,86.15
2018-01-16T06:13:12.102Z,85.68
2018-01-16T06:14:12.111Z,86.24
2018-01-16T06:15:12.517Z,85.96
2018-01-16T06:16:12.269Z,86.15
2018-01-16T06:17:12.412Z,85.96
2018-01-16T06:18:12.922Z,86.82
2018-01-16T06:19:12.075Z,85.96
2018-01-16T06:20:11.977Z,86.05
2018-01-16T06:21:11.981Z,86.72
2018-01-16T06:22:12.857Z,86.63
2018-01-16T06:23:11.937Z,86.72
2018-01-16T06:24:11.896Z,86.05
2018-01-16T06:25:11.880Z,86.43
2018-01-16T06:26:11.864Z,85.86
2018-01-16T06:27:11.853Z,85.86
2018-01-16T06:28:12.474Z,85.96
2018-01-16T06:29:11.821Z,86.63
2018-01-16T06:30:11.811Z,86.43
2018-01-16T06:31:11.808Z,86.24
2018-01-16T06:32:11.775Z,86.72
2018-01-16T06:33:11.787Z,86.43
2018-01-16T06:34:32.752Z,86.53
2018-01-16T06:35:11.877Z,86.63
2018-01-16T06:36:11.716Z,86.53
2018-01-16T06:37:11.709Z,87.01
2018-01-16T06:38:11.699Z,86.72
2018-01-16T06:39:11.710Z,86.82
2018-01-16T06:40:11.656Z,87.01
2018-01-16T06:41:11.690Z,86.82
2018-01-16T06:42:11.643Z,86.91
2018-01-16T06:43:11.739Z,87.10
2018-01-16T06:44:11.593Z,86.72
2018-01-16T06:45:11.633Z,87.10
2018-01-16T06:46:11.569Z,86.82
2018-01-16T06:47:11.564Z,87.01
2018-01-16T06:48:11.530Z,86.82
2018-01-16T06:49:11.525Z,87.10
2018-01-16T06:50:11.534Z,86.82
2018-01-16T06:51:11.660Z,87.01
2018-01-16T06:52:32.517Z,87.01
2018-01-16T06:53:11.454Z,86.91
2018-01-16T06:54:11.438Z,87.67
2018-01-16T06:55:12.950Z,87.48
2018-01-16T07:02:18.632Z,87.29
2018-01-16T07:03:29.247Z,87.38
2018-01-16T07:04:13.871Z,87.95
2018-01-16T07:05:16.184Z,87.01
2018-01-16T07:09:54.278Z,87.86
2018-01-16T07:10:30.837Z,87.86
2018-01-16T07:11:49.605Z,87.76
2018-01-16T07:12:37.244Z,87.38
2018-01-16T07:13:33.966Z,87.48
2018-01-16T07:14:34.623Z,87.19
2018-01-16T07:15:43.146Z,86.91
2018-01-16T07:16:31.238Z,87.10
2018-01-16T07:17:30.830Z,87.19
2018-01-16T07:18:31.807Z,86.91
2018-01-16T08:10:34.960Z,87.01
2018-01-16T08:14:22.190Z,86.86
2018-01-16T08:15:20.456Z,86.38
2018-01-16T08:16:20.362Z,86.19
2018-01-16T08:17:21.307Z,86.00
2018-01-16T08:18:21.204Z,85.81
2018-01-16T08:19:22.203Z,85.34
2018-01-16T08:20:21.193Z,85.72
2018-01-16T08:21:21.692Z,84.67
2018-01-16T08:22:20.244Z,84.67
2018-01-16T08:23:20.428Z,85.43
2018-01-16T09:05:56.247Z,81.86
2018-01-16T09:06:58.035Z,82.81
2018-01-16T09:07:56.203Z,82.71
2018-01-16T09:08:56.202Z,82.43
2018-01-16T09:09:56.152Z,82.15
2018-01-16T09:10:56.166Z,81.77
2018-01-16T09:11:56.169Z,81.77
2018-01-16T09:12:56.106Z,81.67
2018-01-16T09:13:56.091Z,82.34
2018-01-16T09:14:56.071Z,82.28
2018-01-16T09:15:56.071Z,81.90
2018-01-16T09:16:56.038Z,81.24
2018-01-16T09:17:56.027Z,79.66
2018-01-16T09:18:56.022Z,79.19
2018-01-16T09:19:56.006Z,78.33
2018-01-16T09:20:55.982Z,78.61
2018-01-16T09:21:55.982Z,79.28
2018-01-16T09:22:55.949Z,78.71
2018-01-16T09:23:55.928Z,79.05
2018-01-16T09:24:55.924Z,78.86
2018-01-16T09:25:55.927Z,79.43
2018-01-16T09:26:55.896Z,79.24
2018-01-16T09:27:55.877Z,79.72
2018-01-16T09:28:55.852Z,80.29
2018-01-16T09:29:55.848Z,80.57
2018-01-16T09:30:55.839Z,81.14
2018-01-16T09:31:55.845Z,79.11
2018-01-16T09:51:31.467Z,87.73
2018-01-16T09:52:43.633Z,87.82
2018-01-16T10:06:08.338Z,87.97
2018-01-16T10:12:25.593Z,89.67
2018-01-16T10:13:04.112Z,89.58
2018-01-16T10:17:37.072Z,90.15
2018-01-16T10:17:40.721Z,90.05
2018-01-16T10:19:18.039Z,90.53
2018-01-16T10:20:05.864Z,90.34
2018-01-16T10:20:42.335Z,90.24
2018-01-16T10:21:42.837Z,90.81
2018-01-16T10:22:40.866Z,90.91
2018-01-16T10:23:37.993Z,90.43
2018-01-16T10:24:38.338Z,90.24
2018-01-16T10:25:37.516Z,90.24
2018-01-16T10:26:38.212Z,90.05
2018-01-16T10:27:37.625Z,90.24
2018-01-16T10:28:37.727Z,90.05
2018-01-16T10:29:38.510Z,90.62
2018-01-16T10:30:37.570Z,90.15
2018-01-16T10:31:38.337Z,89.86
2018-01-16T10:32:38.857Z,89.77
2018-01-16T10:33:37.920Z,89.67
2018-01-16T10:34:37.835Z,89.96
2018-01-16T10:35:37.448Z,89.77
2018-01-16T10:36:37.393Z,89.86
2018-01-16T10:37:37.405Z,89.29
2018-01-16T10:38:38.336Z,90.05
2018-01-16T10:39:37.839Z,89.48
2018-01-16T10:40:37.250Z,89.39
2018-01-16T10:41:37.969Z,89.20
2018-01-16T10:42:41.871Z,89.58
2018-01-16T10:43:51.588Z,89.58
2018-01-16T12:18:53.100Z,89.91
2018-01-16T12:19:33.585Z,89.43
2018-01-16T12:21:49.978Z,88.87
2018-01-16T12:22:52.333Z,89.06
2018-01-16T12:25:30.629Z,89.06
2018-01-16T12:26:42.535Z,88.96
2018-01-16T12:27:34.139Z,89.15
2018-01-16T12:47:47.338Z,88.96
2018-01-16T12:48:36.969Z,89.00
2018-01-16T12:49:36.434Z,89.25
2018-01-16T12:53:09.961Z,88.91
2018-01-16T12:54:12.636Z,89.58
2018-01-16T12:55:08.327Z,89.67
2018-01-16T12:56:11.438Z,89.95
2018-01-16T12:57:09.431Z,89.95
2018-01-16T12:58:08.513Z,89.20
2018-01-16T12:59:08.207Z,87.77
2018-01-16T13:00:08.219Z,87.01
2018-01-16T13:01:08.178Z,86.54
2018-01-16T13:02:08.182Z,86.07
2018-01-16T13:03:08.178Z,85.02
2018-01-16T13:04:08.130Z,84.07
2018-01-16T13:05:08.145Z,83.59
2018-01-16T13:06:08.096Z,83.40
2018-01-16T13:07:08.076Z,82.84
2018-01-16T13:08:08.101Z,81.51
2018-01-16T13:09:08.056Z,81.51
2018-01-16T13:10:08.022Z,81.60
2018-01-16T13:11:08.002Z,80.65
2018-01-16T13:12:07.990Z,81.41
2018-01-16T13:13:08.002Z,81.79
2018-01-16T13:14:07.983Z,82.17
2018-01-16T13:15:07.976Z,82.84
2018-01-16T13:16:07.925Z,83.50
2018-01-16T13:17:07.943Z,83.03
2018-01-16T13:18:07.925Z,83.22
2018-01-16T13:19:07.923Z,82.74
2018-01-16T13:20:07.917Z,83.22
2018-01-16T13:21:07.873Z,81.45
2018-01-16T13:22:07.840Z,79.12
2018-01-16T13:23:07.845Z,79.22
2018-01-16T13:24:07.857Z,79.55
2018-01-16T13:25:07.821Z,79.74
2018-01-16T13:26:07.774Z,79.46
2018-01-16T13:27:07.760Z,80.32
2018-01-16T13:28:07.754Z,80.98
2018-01-16T13:29:07.732Z,80.98
2018-01-16T13:30:07.749Z,80.41
2018-01-16T13:31:07.713Z,79.41
2018-01-16T13:32:07.697Z,78.17
2018-01-16T13:33:07.685Z,77.83
2018-01-16T13:34:07.707Z,77.17
2018-01-16T13:35:07.653Z,76.78
2018-01-16T13:36:07.621Z,76.40
2018-01-16T13:37:07.628Z,76.40
2018-01-16T13:38:07.598Z,76.69
2018-01-16T13:39:07.594Z,76.40
2018-01-16T13:40:07.554Z,77.26
2018-01-16T13:41:07.576Z,77.36
2018-01-16T13:42:07.521Z,77.07
2018-01-16T13:43:07.512Z,77.89
2018-01-16T13:44:07.535Z,78.08
2018-01-16T13:45:07.474Z,78.64
2018-01-16T13:46:07.468Z,78.93
2018-01-16T13:47:07.471Z,79.41
2018-01-16T13:48:07.448Z,79.22
2018-01-16T13:49:07.449Z,79.12
2018-01-16T13:50:07.428Z,79.50
2018-01-16T13:51:07.417Z,79.60
2018-01-16T13:52:07.401Z,80.74
2018-01-16T13:53:07.383Z,80.07
2018-01-16T13:54:07.341Z,80.35
2018-01-16T13:55:07.327Z,80.74
2018-01-16T13:56:07.353Z,79.97
2018-01-16T13:57:07.311Z,79.12
2018-01-16T13:58:07.337Z,79.12
2018-01-16T13:59:07.259Z,80.22
2018-01-16T14:00:07.614Z,80.22
2018-01-16T14:01:07.254Z,80.03
2018-01-16T14:02:07.297Z,80.69
2018-01-16T14:03:07.216Z,80.79
2018-01-16T14:04:07.187Z,80.88
2018-01-16T14:05:07.213Z,80.88
2018-01-16T14:06:07.171Z,81.07
2018-01-16T14:07:07.151Z,80.88
2018-01-16T14:08:07.288Z,81.07
2018-01-16T14:09:07.125Z,81.17
2018-01-16T14:10:08.075Z,81.07
2018-01-16T14:11:10.443Z,81.26
2018-01-16T14:12:11.037Z,81.17
2018-01-16T14:13:07.089Z,80.79
2018-01-16T14:14:07.044Z,80.51
2018-01-16T14:15:07.026Z,80.03
2018-01-16T14:16:07.059Z,79.55
2018-01-16T14:17:07.006Z,79.46
2018-01-16T14:18:07.078Z,79.27
2018-01-16T14:19:06.973Z,79.46
2018-01-16T14:20:06.944Z,79.65
2018-01-16T14:21:06.945Z,79.46
2018-01-16T14:22:06.931Z,78.80
2018-01-16T14:23:07.516Z,78.03
2018-01-16T14:24:07.943Z,78.70
2018-01-16T14:25:07.000Z,77.94
2018-01-16T14:26:06.930Z,78.42
2018-01-16T14:27:06.870Z,78.32
2018-01-16T14:28:06.838Z,78.99
2018-01-16T14:29:08.151Z,79.08
2018-01-16T14:30:07.467Z,78.61
2018-01-16T14:31:07.541Z,78.00
2018-01-16T14:32:06.831Z,78.47
2018-01-16T14:33:08.491Z,78.47
2018-01-16T14:35:37.950Z,77.71
2018-01-16T14:36:06.701Z,76.95
2018-01-16T14:37:06.685Z,77.33
2018-01-16T14:38:07.036Z,77.62
2018-01-16T14:39:06.764Z,78.09
2018-01-16T14:40:06.632Z,78.75
2018-01-16T14:41:06.619Z,79.33
2018-01-16T14:42:06.673Z,79.66
2018-01-16T14:43:06.869Z,80.62
2018-01-16T14:44:06.703Z,80.43
2018-01-16T14:45:08.475Z,80.37
2018-01-16T14:46:09.568Z,81.27
2018-01-16T14:47:06.634Z,80.71
2018-01-16T14:48:07.544Z,81.85
2018-01-16T14:49:07.570Z,82.60
2018-01-16T14:50:07.368Z,81.66
2018-01-16T14:51:06.482Z,81.27
2018-01-16T14:52:06.550Z,81.18
2018-01-16T14:53:06.949Z,81.85
2018-01-16T14:54:06.530Z,81.66
2018-01-16T14:55:06.668Z,81.75
2018-01-16T14:56:07.449Z,82.04
2018-01-16T14:57:06.700Z,81.85
2018-01-16T14:58:08.453Z,82.60
2018-01-16T14:59:06.956Z,82.42
2018-01-16T15:00:06.957Z,82.51
2018-01-16T15:01:07.449Z,82.98
2018-01-16T15:02:06.378Z,83.55
2018-01-16T15:03:06.311Z,83.84
2018-01-16T15:04:06.247Z,83.74
2018-01-16T15:05:27.274Z,84.22
2018-01-16T15:06:06.244Z,84.22
2018-01-16T15:07:06.239Z,82.89
2018-01-16T15:08:06.218Z,83.46
2018-01-16T15:09:06.227Z,83.55
2018-01-16T15:10:14.965Z,84.03
2018-01-16T15:11:10.458Z,83.74
2018-01-16T15:12:07.142Z,83.94
2018-01-16T15:13:07.953Z,84.12
2018-01-16T15:14:09.390Z,83.84
2018-01-16T15:15:14.466Z,84.22
2018-01-16T15:16:10.950Z,84.03
2018-01-16T15:17:16.308Z,84.03
2018-01-16T15:18:12.468Z,84.50
2018-01-16T15:19:54.954Z,84.12
2018-01-16T15:20:34.009Z,84.31
2018-01-16T15:21:18.472Z,84.41
2018-01-16T15:22:10.556Z,84.88
2018-01-16T15:23:09.464Z,84.69
2018-01-16T15:24:10.523Z,84.50
2018-01-16T15:25:06.561Z,84.78
2018-01-16T15:26:05.992Z,84.78
2018-01-16T15:27:09.585Z,85.45
2018-01-16T15:28:05.903Z,84.78
2018-01-16T15:29:05.893Z,84.31
2018-01-16T15:31:41.752Z,84.22
2018-01-16T15:32:05.907Z,83.74
2018-01-16T15:33:07.453Z,83.65
2018-01-16T15:34:06.452Z,83.36
2018-01-16T15:35:05.786Z,83.84
2018-01-16T15:36:06.963Z,84.03
2018-01-16T15:37:06.704Z,83.84
2018-01-16T15:38:11.464Z,83.94
2018-01-16T15:39:05.762Z,84.88
2018-01-16T15:40:05.938Z,84.69
2018-01-16T15:41:06.953Z,84.03
2018-01-16T15:42:05.713Z,84.31
2018-01-16T15:43:05.698Z,84.46
2018-01-16T15:44:06.995Z,84.46
2018-01-16T15:45:07.956Z,84.55
2018-01-16T15:46:06.456Z,85.41
2018-01-16T15:47:06.644Z,85.69
2018-01-16T15:48:07.456Z,85.60
2018-01-16T15:49:06.491Z,86.16
2018-01-16T15:50:05.652Z,86.83
2018-01-16T15:51:05.644Z,86.83
2018-01-16T15:52:06.478Z,86.64
2018-01-16T15:53:06.456Z,87.49
2018-01-16T15:54:06.018Z,87.21
2018-01-16T15:55:05.988Z,88.25
2018-01-16T15:56:06.122Z,88.63
2018-01-16T15:57:05.516Z,87.59
2018-01-16T15:58:05.516Z,88.16
2018-01-16T15:59:26.487Z,88.06
2018-01-16T16:00:05.487Z,87.97
2018-01-16T16:01:05.375Z,88.25
2018-01-16T16:02:05.959Z,87.68
2018-01-16T16:03:05.966Z,88.63
2018-01-16T16:04:05.512Z,88.92
2018-01-16T16:05:05.382Z,88.92
2018-01-16T16:06:05.960Z,89.48
2018-01-16T16:07:06.956Z,89.77
2018-01-16T16:08:05.345Z,90.34
2018-01-16T16:09:05.252Z,90.48
2018-01-16T16:10:05.958Z,90.67
2018-01-16T16:11:05.224Z,90.58
2018-01-16T16:12:05.216Z,89.82
2018-01-16T16:13:05.178Z,89.72
2018-01-16T16:14:05.176Z,90.39
2018-01-16T16:15:05.296Z,90.10
2018-01-16T16:16:05.111Z,90.10
2018-01-16T16:17:05.209Z,90.29
2018-01-16T16:18:05.112Z,90.29
2018-01-16T16:19:05.130Z,90.10
2018-01-16T16:20:05.082Z,90.39
2018-01-16T16:21:05.021Z,90.86
2018-01-16T16:22:05.028Z,91.14
2018-01-16T16:23:04.980Z,91.71
2018-01-16T16:24:05.006Z,92.47
2018-01-16T16:25:04.974Z,92.47
2018-01-16T16:26:04.986Z,92.66
2018-01-16T16:27:05.465Z,90.77
2018-01-16T16:28:05.133Z,90.20
2018-01-16T16:29:04.864Z,89.34
2018-01-16T16:30:04.885Z,89.34
2018-01-16T16:31:09.966Z,89.82
2018-01-16T16:32:05.910Z,90.29
2018-01-16T16:33:06.463Z,90.95
2018-01-16T16:34:04.886Z,90.58
2018-01-16T16:35:04.976Z,91.05
2018-01-16T16:36:04.875Z,91.33
2018-01-16T16:37:04.767Z,90.95
2018-01-16T16:38:04.796Z,91.62
2018-01-16T16:39:04.815Z,91.14
2018-01-16T16:40:05.462Z,91.24
2018-01-16T16:41:04.744Z,91.00
2018-01-16T16:42:04.789Z,91.29
2018-01-16T16:43:04.728Z,91.10
2018-01-16T16:44:04.903Z,91.67
2018-01-16T16:45:04.872Z,91.29
2018-01-16T16:46:04.611Z,91.86
2018-01-16T16:47:04.590Z,92.24
2018-01-16T16:48:04.578Z,92.05
2018-01-16T16:49:04.540Z,92.33
2018-01-16T16:50:04.603Z,92.61
2018-01-16T16:51:04.702Z,92.61
2018-01-16T16:52:04.535Z,92.43
2018-01-16T16:53:04.575Z,92.61
2018-01-16T16:54:04.470Z,92.52
2018-01-16T16:55:04.529Z,93.08
2018-01-16T16:56:04.579Z,93.37
2018-01-16T16:57:04.419Z,93.46
2018-01-16T16:58:04.964Z,93.94
2018-01-16T16:59:04.382Z,94.13
2018-01-16T17:00:04.651Z,94.23
2018-01-16T17:01:06.489Z,93.84
2018-01-16T17:02:04.435Z,93.75
2018-01-16T17:03:04.993Z,93.65
2018-01-16T17:04:06.442Z,93.46
2018-01-16T17:05:05.223Z,93.65
2018-01-16T17:06:06.565Z,93.65
2018-01-16T17:07:05.110Z,92.90
2018-01-16T17:08:04.329Z,93.08
2018-01-16T17:09:04.994Z,92.80
2018-01-16T17:10:05.271Z,92.99
2018-01-16T17:11:07.480Z,92.71
2018-01-16T17:12:04.219Z,92.71
2018-01-16T17:13:04.521Z,92.99
2018-01-16T17:14:06.992Z,93.56
2018-01-16T17:15:06.968Z,93.27
2018-01-16T17:16:06.060Z,93.65
2018-01-16T17:17:05.764Z,93.65
2018-01-16T17:18:05.221Z,93.65
2018-01-16T17:19:05.966Z,93.18
2018-01-16T17:20:05.469Z,93.46
2018-01-16T17:21:04.424Z,93.65
2018-01-16T17:22:06.467Z,93.65
2018-01-16T17:23:05.468Z,93.65
2018-01-16T17:24:04.032Z,93.37
2018-01-16T17:25:04.474Z,93.84
2018-01-16T17:26:04.550Z,94.32
2018-01-16T17:27:04.471Z,94.32
2018-01-16T17:28:03.957Z,94.51
2018-01-16T17:29:13.002Z,94.23
2018-01-16T17:30:07.503Z,94.42
2018-01-16T17:31:05.467Z,94.70
2018-01-16T17:32:06.467Z,94.51
2018-01-16T17:33:03.858Z,94.04
2018-01-16T17:34:03.836Z,94.60
2018-01-16T17:35:04.968Z,94.79
2018-01-16T17:36:04.968Z,94.79
2018-01-16T17:37:03.746Z,95.17
2018-01-16T17:38:03.826Z,95.26
2018-01-16T17:39:04.700Z,95.17
2018-01-16T17:40:03.721Z,94.89
2018-01-16T17:41:03.759Z,94.79
2018-01-16T17:42:03.640Z,94.98
2018-01-16T17:43:03.668Z,95.07
2018-01-16T17:44:03.637Z,94.98
2018-01-16T17:45:03.651Z,94.89
2018-01-16T17:46:03.614Z,94.98
2018-01-16T17:47:03.592Z,95.03
2018-01-16T17:48:03.529Z,94.79
2018-01-16T17:49:04.511Z,94.98
2018-01-16T17:50:03.523Z,95.17
2018-01-16T17:51:03.489Z,94.98
2018-01-16T17:52:04.470Z,95.07
2018-01-16T17:53:03.473Z,94.89
2018-01-16T17:54:03.429Z,94.93
2018-01-16T17:55:03.484Z,94.74
2018-01-16T17:56:03.426Z,94.93
2018-01-16T17:57:03.435Z,94.93
2018-01-16T17:58:03.432Z,95.12
2018-01-16T17:59:03.386Z,94.93
2018-01-16T18:00:03.329Z,95.78
2018-01-16T18:01:03.429Z,95.31
2018-01-16T18:02:03.392Z,95.36
2018-01-16T18:03:03.329Z,95.74
2018-01-16T18:04:03.281Z,95.74
2018-01-16T18:05:03.265Z,94.70
2018-01-16T18:06:03.260Z,94.98
2018-01-16T18:07:03.266Z,95.36
2018-01-16T18:08:03.252Z,95.17
2018-01-16T18:09:03.255Z,94.79
2018-01-16T18:10:03.226Z,94.60
2018-01-16T18:11:03.152Z,94.70
2018-01-16T18:12:03.192Z,94.89
2018-01-16T18:13:03.102Z,95.17
2018-01-16T18:14:03.091Z,94.89
2018-01-16T18:15:03.101Z,94.51
2018-01-16T18:16:03.102Z,94.32
2018-01-16T18:17:03.042Z,94.32
2018-01-16T18:18:03.027Z,94.42
2018-01-16T18:19:03.004Z,94.32
2018-01-16T18:20:02.988Z,94.89
2018-01-16T18:21:03.004Z,94.32
2018-01-16T18:22:02.944Z,94.13
2018-01-16T18:23:02.952Z,94.23
2018-01-16T18:24:02.917Z,94.04
2018-01-16T18:25:02.897Z,93.84
2018-01-16T18:26:02.891Z,94.42
2018-01-16T18:27:02.858Z,94.04
2018-01-16T18:28:02.838Z,94.32
2018-01-16T18:29:02.824Z,93.84
2018-01-16T18:30:02.840Z,94.42
2018-01-16T18:31:02.802Z,93.94
2018-01-16T18:32:02.784Z,94.70
2018-01-16T18:33:02.750Z,94.89
2018-01-16T18:34:02.740Z,94.04
2018-01-16T18:35:02.723Z,94.60
2018-01-16T18:36:02.828Z,94.04
2018-01-16T18:37:02.741Z,94.42
2018-01-16T18:38:02.696Z,94.23
2018-01-16T18:39:02.685Z,94.60
2018-01-16T18:40:02.697Z,94.98
2018-01-16T18:41:02.691Z,95.88
2018-01-16T18:42:02.649Z,94.93
2018-01-16T18:43:02.588Z,94.79
2018-01-16T18:44:02.641Z,95.03
2018-01-16T18:45:02.602Z,94.84
2018-01-16T18:46:02.541Z,95.40
2018-01-16T18:47:02.547Z,95.31
2018-01-16T18:48:02.537Z,95.59
2018-01-16T18:49:02.510Z,95.50
2018-01-16T18:50:02.494Z,96.35
2018-01-16T18:51:02.484Z,95.69
2018-01-16T18:52:02.486Z,95.78
2018-01-16T18:53:02.463Z,95.78
2018-01-16T18:54:02.981Z,95.78
2018-01-16T18:55:02.382Z,96.16
2018-01-16T18:56:02.436Z,95.59
2018-01-16T18:57:02.416Z,96.16
2018-01-16T18:58:02.333Z,96.35
2018-01-16T18:59:02.978Z,96.26
2018-01-16T19:00:02.361Z,96.16
2018-01-16T19:01:02.360Z,95.78
2018-01-16T19:02:02.333Z,96.54
2018-01-16T19:03:02.296Z,96.26
2018-01-16T19:04:02.334Z,96.54
2018-01-16T19:05:02.253Z,96.45
2018-01-16T19:06:02.225Z,96.73
2018-01-16T19:07:02.234Z,96.35
2018-01-16T19:08:02.281Z,96.64
2018-01-16T19:09:02.242Z,96.54
2018-01-16T19:10:02.154Z,96.73
2018-01-16T19:11:02.117Z,97.02
2018-01-16T19:12:02.144Z,96.83
2018-01-16T19:13:02.111Z,97.20
2018-01-16T19:14:02.103Z,97.11
2018-01-16T19:15:02.046Z,96.83
2018-01-16T19:16:02.022Z,97.11
2018-01-16T19:17:02.107Z,97.30
2018-01-16T19:18:02.024Z,97.49
2018-01-16T19:19:02.008Z,97.77
2018-01-16T19:20:02.015Z,97.30
2018-01-16T19:21:01.950Z,97.77
2018-01-16T19:22:01.941Z,97.87
2018-01-16T19:23:01.950Z,97.39
2018-01-16T19:24:01.925Z,97.77
2018-01-16T19:25:01.905Z,96.83
2018-01-16T19:26:01.893Z,96.83
2018-01-16T19:27:01.874Z,97.30
2018-01-16T19:28:01.832Z,97.11
2018-01-16T19:29:01.801Z,97.20
2018-01-16T19:30:01.821Z,96.35
2018-01-16T19:31:01.796Z,96.64
2018-01-16T19:32:01.772Z,96.26
2018-01-16T19:33:01.726Z,95.88
2018-01-16T19:34:01.735Z,95.50
2018-01-16T19:35:01.745Z,95.78
2018-01-16T19:36:01.712Z,95.78
2018-01-16T19:37:01.706Z,95.78
2018-01-16T19:38:01.689Z,95.03
2018-01-16T19:39:01.625Z,94.84
2018-01-16T19:40:01.682Z,94.18
2018-01-16T19:41:01.619Z,94.08
2018-01-16T19:42:01.609Z,94.32
2018-01-16T19:43:01.593Z,93.37
2018-01-16T19:44:01.577Z,94.04
2018-01-16T19:45:01.577Z,93.32
2018-01-16T19:46:01.562Z,93.42
2018-01-16T19:47:01.504Z,93.37
2018-01-16T19:48:01.506Z,93.94
2018-01-16T19:49:01.477Z,93.75
2018-01-16T19:50:01.473Z,93.46
2018-01-16T19:51:01.459Z,93.37
2018-01-16T19:52:01.459Z,92.90
2018-01-16T19:53:01.385Z,92.99
2018-01-16T19:54:01.400Z,92.99
2018-01-16T19:55:01.359Z,93.56
2018-01-16T19:56:01.358Z,93.08
2018-01-16T19:57:01.346Z,93.18
2018-01-16T19:58:04.079Z,93.08
2018-01-16T19:59:01.349Z,92.99
2018-01-16T20:00:01.289Z,92.99
2018-01-16T20:01:01.289Z,92.99
2018-01-16T20:02:31.588Z,94.23
2018-01-16T20:03:31.556Z,93.94
2018-01-16T20:04:31.544Z,91.86
2018-01-16T20:05:31.522Z,91.29
2018-01-16T20:06:31.502Z,91.10
2018-01-16T20:07:31.499Z,91.76
2018-01-16T20:08:31.463Z,92.14
2018-01-16T20:09:31.444Z,92.52
2018-01-16T20:10:31.446Z,92.71
2018-01-16T20:11:31.411Z,92.99
2018-01-16T20:12:31.404Z,93.23
2018-01-16T20:13:31.372Z,93.23
2018-01-16T20:14:31.355Z,93.80
2018-01-16T20:15:31.351Z,93.42
2018-01-16T20:16:31.322Z,93.32
2018-01-16T20:17:31.299Z,93.42
2018-01-16T20:18:31.279Z,93.32
2018-01-16T20:19:31.260Z,93.61
2018-01-16T20:20:31.264Z,93.46
2018-01-16T20:21:31.226Z,93.46
2018-01-16T20:22:31.206Z,93.70
2018-01-16T20:23:31.187Z,93.32
2018-01-16T20:24:31.166Z,93.51
2018-01-16T20:25:31.159Z,93.46
2018-01-16T20:26:31.141Z,93.65
2018-01-16T20:27:31.109Z,93.46
2018-01-16T20:28:31.108Z,93.46
2018-01-16T20:29:31.071Z,93.27
2018-01-16T20:30:31.054Z,93.65
2018-01-16T20:31:31.037Z,93.65
2018-01-16T20:32:31.035Z,93.65
2018-01-16T20:33:30.992Z,93.56
2018-01-16T20:34:30.975Z,93.46
2018-01-16T20:35:30.955Z,93.46
2018-01-16T20:36:30.933Z,93.37
2018-01-16T20:37:30.936Z,94.04
2018-01-16T20:38:30.904Z,94.42
2018-01-16T20:39:30.877Z,94.13
2018-01-16T20:40:30.863Z,93.94
2018-01-16T20:41:30.860Z,94.23
2018-01-16T20:42:30.840Z,94.04
2018-01-16T20:43:30.805Z,94.13
2018-01-16T20:44:30.786Z,93.94
2018-01-16T20:45:30.767Z,93.75
2018-01-16T20:46:30.745Z,93.65
2018-01-16T20:47:30.726Z,93.84
2018-01-16T20:48:30.721Z,93.75
2018-01-16T20:49:30.692Z,93.37
2018-01-16T20:50:30.688Z,92.90
2018-01-16T20:51:30.652Z,92.99
2018-01-16T20:52:30.632Z,92.33
2018-01-16T20:53:30.615Z,92.61
2018-01-16T20:54:30.593Z,92.05
2018-01-16T20:55:30.588Z,92.43
2018-01-16T20:56:30.553Z,91.19
2018-01-16T20:57:30.536Z,91.48
2018-01-16T20:58:30.517Z,91.00
2018-01-16T20:59:30.563Z,90.53
2018-01-16T21:00:30.478Z,90.77
2018-01-16T21:01:30.462Z,90.67
2018-01-16T21:02:30.453Z,90.67
2018-01-16T21:03:30.426Z,91.00
2018-01-16T21:04:30.418Z,90.53
2018-01-16T21:05:30.385Z,90.72
2018-01-16T21:06:30.382Z,90.86
2018-01-16T21:07:30.343Z,90.48
2018-01-16T21:08:30.325Z,90.72
2018-01-16T21:09:30.324Z,90.63
2018-01-16T21:10:30.302Z,90.53
2018-01-16T21:11:30.269Z,90.81
2018-01-16T21:12:30.251Z,90.44
2018-01-16T21:13:30.231Z,90.81
2018-01-16T21:14:30.212Z,90.81
2018-01-16T21:15:30.205Z,90.44
2018-01-16T21:16:30.173Z,90.81
2018-01-16T21:17:30.162Z,91.10
2018-01-16T21:18:30.222Z,90.81
2018-01-16T21:19:30.114Z,91.57
2018-01-16T21:20:30.112Z,91.19
2018-01-16T21:21:30.077Z,90.91
2018-01-16T21:22:30.056Z,91.10
2018-01-16T21:23:30.053Z,91.29
2018-01-16T21:24:30.019Z,91.38
2018-01-16T21:25:30.002Z,91.33
2018-01-16T21:26:29.982Z,90.44
2018-01-16T21:27:29.960Z,91.00
2018-01-16T21:28:29.940Z,91.00
2018-01-16T21:29:29.935Z,91.67
2018-01-16T21:30:29.903Z,90.86
2018-01-16T21:31:29.886Z,91.48
2018-01-16T21:32:29.870Z,91.19
2018-01-16T21:33:29.849Z,91.62
2018-01-16T21:34:29.852Z,91.38
2018-01-16T21:35:29.811Z,91.67
2018-01-16T21:36:29.787Z,91.76
2018-01-16T21:37:29.772Z,91.76
2018-01-16T21:38:29.753Z,91.38
2018-01-16T21:39:29.749Z,91.38
2018-01-16T21:40:29.710Z,91.38
2018-01-16T21:41:29.697Z,91.19
2018-01-16T21:42:29.677Z,91.76
2018-01-16T21:43:29.673Z,91.52
2018-01-16T21:44:29.636Z,91.71
2018-01-16T21:45:29.651Z,91.57
2018-01-16T21:46:29.622Z,91.33
2018-01-16T21:47:29.582Z,91.33
2018-01-16T21:48:29.557Z,91.29
2018-01-16T21:49:29.544Z,91.38
2018-01-16T21:50:29.524Z,91.67
2018-01-16T21:51:29.524Z,91.43
2018-01-16T21:52:29.486Z,91.14
2018-01-16T21:53:29.471Z,91.43
2018-01-16T21:54:29.455Z,91.14
2018-01-16T21:55:29.429Z,90.86
2018-01-16T21:56:29.411Z,91.10
2018-01-16T21:57:29.408Z,91.57
2018-01-16T21:58:29.402Z,91.67
2018-01-16T21:59:29.352Z,92.33
2018-01-16T22:00:29.336Z,91.76
2018-01-16T22:01:29.321Z,91.33
2018-01-16T22:02:29.299Z,91.81
2018-01-16T22:03:29.293Z,91.43
2018-01-16T22:04:29.254Z,91.33
2018-01-16T22:05:29.238Z,91.05
2018-01-16T22:06:29.220Z,90.48
2018-01-16T22:07:29.201Z,90.95
2018-01-16T22:08:29.180Z,90.20
2018-01-16T22:09:29.182Z,90.10
2018-01-16T22:10:29.152Z,90.01
2018-01-16T22:11:29.126Z,90.20
2018-01-16T22:12:29.102Z,90.29
2018-01-16T22:13:29.088Z,90.01
2018-01-16T22:14:29.080Z,90.58
2018-01-16T22:15:29.048Z,90.67
2018-01-16T22:16:29.087Z,90.77
2018-01-16T22:17:29.011Z,90.86
2018-01-16T22:18:28.992Z,90.39
2018-01-16T22:19:50.071Z,90.77
2018-01-16T22:20:28.953Z,90.67
2018-01-16T22:21:28.934Z,90.67
2018-01-16T22:22:28.914Z,90.58
2018-01-16T22:23:28.897Z,90.67
2018-01-16T22:24:28.898Z,90.58
2018-01-16T22:25:28.862Z,90.58
2018-01-16T22:26:28.848Z,90.58
2018-01-16T22:27:28.839Z,90.67
2018-01-16T22:28:28.800Z,91.14
2018-01-16T22:29:28.781Z,90.01
2018-01-16T22:30:28.779Z,89.91
2018-01-16T22:31:28.745Z,89.82
2018-01-16T22:32:28.728Z,89.82
2018-01-16T22:33:28.708Z,90.10
2018-01-16T22:34:28.704Z,90.29
2018-01-16T22:35:28.672Z,90.29
2018-01-16T22:36:28.651Z,90.20
2018-01-16T22:37:28.632Z,90.67
2018-01-16T22:38:28.615Z,90.58